DLH34L EIDW-EFHK
Flight info
| Callsign | DLH34L |
|---|---|
| Flight time | N/A |
| Altitude | 37000 |
| Route | ROTEV3J ROTEV DCT GOTNA DCT TRN DCT ALOTI DCT LUNIP DCT VATEX DCT RIKUM DCT RIRIP Y364 LAKUT |
| Aircraft | A20N/M-SDE2E3FGHIRWXY/LB1 |
Departure
| Time | 2026-02-19 10:34 |
|---|---|
| Airport | Dublin Airport (EIDW) |
Arrival
| Time | N/A |
|---|---|
| Airport | Helsinki Vantaa Airport (EFHK) |
| Time | Latitude | Longitude | Altitude | Speed | Heading |
|---|---|---|---|---|---|
| 2026-02-19 10:03 | 53.42664 | -6.24630 | 216 ft | 0 kts | 154° |
| 2026-02-19 10:20 | 53.42690 | -6.24650 | 230 ft | 2 kts | 157° |
| 2026-02-19 10:20 | 53.42705 | -6.24662 | 221 ft | 2 kts | 156° |
| 2026-02-19 10:21 | 53.42721 | -6.24668 | 219 ft | 2 kts | 195° |
| 2026-02-19 10:21 | 53.42737 | -6.24643 | 224 ft | 0 kts | 249° |
| 2026-02-19 10:21 | 53.42737 | -6.24644 | 224 ft | 0 kts | 249° |
| 2026-02-19 10:27 | 53.42736 | -6.24652 | 220 ft | 5 kts | 249° |
| 2026-02-19 10:27 | 53.42716 | -6.24740 | 221 ft | 9 kts | 249° |
| 2026-02-19 10:27 | 53.42678 | -6.24842 | 220 ft | 12 kts | 234° |
| 2026-02-19 10:28 | 53.42698 | -6.24959 | 223 ft | 13 kts | 327° |
| 2026-02-19 10:28 | 53.42799 | -6.25182 | 223 ft | 14 kts | 276° |
| 2026-02-19 10:28 | 53.42859 | -6.25286 | 221 ft | 15 kts | 336° |
| 2026-02-19 10:29 | 53.42924 | -6.25337 | 222 ft | 14 kts | 334° |
| 2026-02-19 10:29 | 53.43014 | -6.25412 | 224 ft | 14 kts | 332° |
| 2026-02-19 10:29 | 53.43110 | -6.25493 | 223 ft | 17 kts | 336° |
| 2026-02-19 10:29 | 53.43226 | -6.25568 | 222 ft | 18 kts | 339° |
| 2026-02-19 10:30 | 53.43353 | -6.25643 | 223 ft | 19 kts | 346° |
| 2026-02-19 10:30 | 53.43405 | -6.25514 | 218 ft | 16 kts | 94° |
| 2026-02-19 10:30 | 53.43395 | -6.25315 | 219 ft | 18 kts | 95° |
| 2026-02-19 10:30 | 53.43386 | -6.25142 | 227 ft | 7 kts | 95° |
| 2026-02-19 10:31 | 53.43382 | -6.25054 | 220 ft | 8 kts | 94° |
| 2026-02-19 10:31 | 53.43391 | -6.25003 | 222 ft | 0 kts | 51° |
| 2026-02-19 10:31 | 53.43393 | -6.24995 | 223 ft | 0 kts | 66° |
| 2026-02-19 10:31 | 53.43407 | -6.24983 | 221 ft | 6 kts | 20° |
| 2026-02-19 10:32 | 53.43467 | -6.25040 | 221 ft | 14 kts | 303° |
| 2026-02-19 10:32 | 53.43558 | -6.25276 | 220 ft | 3 kts | 321° |
| 2026-02-19 10:32 | 53.43567 | -6.25308 | 220 ft | 0 kts | 282° |
| 2026-02-19 10:33 | 53.43566 | -6.25311 | 220 ft | 1 kts | 276° |
| 2026-02-19 10:33 | 53.43581 | -6.25572 | 220 ft | 61 kts | 277° |
| 2026-02-19 10:33 | 53.43644 | -6.26720 | 224 ft | 133 kts | 275° |
| 2026-02-19 10:33 | 53.43754 | -6.28522 | 615 ft | 158 kts | 277° |
| 2026-02-19 10:34 | 53.43903 | -6.30368 | 1318 ft | 162 kts | 279° |
| 2026-02-19 10:34 | 53.44127 | -6.32229 | 2093 ft | 164 kts | 291° |
| 2026-02-19 10:34 | 53.44851 | -6.33786 | 2900 ft | 157 kts | 331° |
| 2026-02-19 10:34 | 53.45844 | -6.34528 | 3405 ft | 172 kts | 341° |
| 2026-02-19 10:35 | 53.47062 | -6.34997 | 3967 ft | 185 kts | 356° |
| 2026-02-19 10:35 | 53.48449 | -6.35047 | 4458 ft | 204 kts | 0° |
| 2026-02-19 10:35 | 53.49914 | -6.34990 | 5024 ft | 216 kts | 1° |
| 2026-02-19 10:35 | 53.51545 | -6.34925 | 5772 ft | 223 kts | 0° |
| 2026-02-19 10:36 | 53.53047 | -6.34816 | 6588 ft | 224 kts | 7° |
| 2026-02-19 10:36 | 53.56287 | -6.33949 | 7568 ft | 258 kts | 8° |
| 2026-02-19 10:36 | 53.58137 | -6.33474 | 8119 ft | 273 kts | 7° |
| 2026-02-19 10:37 | 53.60061 | -6.32982 | 8660 ft | 279 kts | 7° |
| 2026-02-19 10:37 | 53.62004 | -6.32486 | 8884 ft | 280 kts | 7° |
| 2026-02-19 10:37 | 53.63967 | -6.31983 | 9239 ft | 278 kts | 7° |
| 2026-02-19 10:37 | 53.65311 | -6.31639 | 9701 ft | 280 kts | 7° |
| 2026-02-19 10:38 | 53.67345 | -6.30989 | 10500 ft | 287 kts | 13° |
| 2026-02-19 10:38 | 53.69353 | -6.30075 | 10861 ft | 308 kts | 14° |
| 2026-02-19 10:38 | 53.71491 | -6.29105 | 11156 ft | 329 kts | 13° |
| 2026-02-19 10:38 | 53.73808 | -6.28053 | 11845 ft | 336 kts | 13° |
| 2026-02-19 10:39 | 53.76182 | -6.26801 | 12694 ft | 341 kts | 20° |
| 2026-02-19 10:39 | 53.78298 | -6.25214 | 13449 ft | 346 kts | 22° |
| 2026-02-19 10:39 | 53.80524 | -6.23525 | 14150 ft | 350 kts | 21° |
| 2026-02-19 10:39 | 53.82746 | -6.21851 | 14833 ft | 354 kts | 21° |
| 2026-02-19 10:40 | 53.85201 | -6.20002 | 15555 ft | 359 kts | 21° |
| 2026-02-19 10:40 | 53.89783 | -6.16544 | 16869 ft | 367 kts | 20° |
| 2026-02-19 10:40 | 53.92128 | -6.14770 | 17527 ft | 371 kts | 20° |
| 2026-02-19 10:41 | 53.94518 | -6.12959 | 18151 ft | 375 kts | 20° |
| 2026-02-19 10:41 | 53.97061 | -6.11030 | 18776 ft | 378 kts | 19° |
| 2026-02-19 10:41 | 53.99409 | -6.09248 | 19329 ft | 382 kts | 19° |
| 2026-02-19 10:41 | 54.01860 | -6.07384 | 19913 ft | 385 kts | 19° |
| 2026-02-19 10:42 | 54.04371 | -6.05456 | 20486 ft | 389 kts | 20° |
| 2026-02-19 10:42 | 54.06859 | -6.03440 | 21061 ft | 393 kts | 21° |
| 2026-02-19 10:42 | 54.08694 | -6.01923 | 21488 ft | 395 kts | 21° |
| 2026-02-19 10:42 | 54.11850 | -5.99308 | 22186 ft | 399 kts | 20° |
| 2026-02-19 10:43 | 54.13517 | -5.97932 | 22556 ft | 401 kts | 20° |
| 2026-02-19 10:43 | 54.16090 | -5.95813 | 23092 ft | 404 kts | 20° |
| 2026-02-19 10:43 | 54.18581 | -5.93766 | 23550 ft | 408 kts | 20° |
| 2026-02-19 10:43 | 54.21224 | -5.91590 | 24027 ft | 410 kts | 19° |
| 2026-02-19 10:44 | 54.23781 | -5.89483 | 24474 ft | 412 kts | 19° |
| 2026-02-19 10:44 | 54.29174 | -5.85033 | 25373 ft | 418 kts | 18° |
| 2026-02-19 10:44 | 54.31957 | -5.82731 | 25818 ft | 421 kts | 18° |
| 2026-02-19 10:45 | 54.34576 | -5.80562 | 26208 ft | 424 kts | 18° |
| 2026-02-19 10:45 | 54.37325 | -5.78283 | 26616 ft | 427 kts | 18° |
| 2026-02-19 10:45 | 54.39999 | -5.76063 | 27010 ft | 429 kts | 18° |
| 2026-02-19 10:45 | 54.42851 | -5.73691 | 27386 ft | 432 kts | 18° |
| 2026-02-19 10:46 | 54.45565 | -5.71431 | 27769 ft | 435 kts | 18° |
| 2026-02-19 10:46 | 54.48316 | -5.69137 | 28125 ft | 438 kts | 18° |
| 2026-02-19 10:46 | 54.51099 | -5.66812 | 28471 ft | 441 kts | 18° |
| 2026-02-19 10:46 | 54.53939 | -5.64436 | 28807 ft | 443 kts | 17° |
| 2026-02-19 10:47 | 54.56751 | -5.62079 | 29120 ft | 446 kts | 17° |
| 2026-02-19 10:47 | 54.59523 | -5.59667 | 29414 ft | 453 kts | 21° |
| 2026-02-19 10:47 | 54.61292 | -5.57789 | 29629 ft | 459 kts | 25° |
| 2026-02-19 10:47 | 54.64160 | -5.54562 | 29924 ft | 462 kts | 24° |
| 2026-02-19 10:48 | 54.66962 | -5.51447 | 30162 ft | 465 kts | 24° |
| 2026-02-19 10:48 | 54.72633 | -5.45145 | 30671 ft | 471 kts | 24° |
| 2026-02-19 10:48 | 54.75479 | -5.41966 | 30938 ft | 474 kts | 23° |
| 2026-02-19 10:49 | 54.78343 | -5.38757 | 31259 ft | 475 kts | 23° |
| 2026-02-19 10:49 | 54.81215 | -5.35531 | 31578 ft | 476 kts | 22° |
| 2026-02-19 10:49 | 54.84010 | -5.32388 | 31900 ft | 476 kts | 22° |
| 2026-02-19 10:49 | 54.86041 | -5.30101 | 32121 ft | 477 kts | 22° |
| 2026-02-19 10:50 | 54.89083 | -5.26669 | 32452 ft | 478 kts | 21° |
| 2026-02-19 10:50 | 54.91865 | -5.23526 | 32746 ft | 479 kts | 21° |
| 2026-02-19 10:50 | 54.94715 | -5.20301 | 33043 ft | 479 kts | 21° |
| 2026-02-19 10:50 | 54.97631 | -5.16995 | 33338 ft | 480 kts | 21° |
| 2026-02-19 10:51 | 55.00463 | -5.13779 | 33622 ft | 481 kts | 20° |
| 2026-02-19 10:51 | 55.03338 | -5.10509 | 33894 ft | 481 kts | 20° |
| 2026-02-19 10:51 | 55.06177 | -5.07273 | 34182 ft | 480 kts | 21° |
| 2026-02-19 10:51 | 55.08959 | -5.04097 | 34448 ft | 479 kts | 21° |
| 2026-02-19 10:52 | 55.11846 | -5.00796 | 34720 ft | 478 kts | 21° |
| 2026-02-19 10:52 | 55.17472 | -4.94352 | 35264 ft | 476 kts | 21° |
| 2026-02-19 10:52 | 55.20278 | -4.91130 | 35525 ft | 475 kts | 21° |
| 2026-02-19 10:53 | 55.23071 | -4.87919 | 35790 ft | 474 kts | 21° |
| 2026-02-19 10:53 | 55.25815 | -4.84759 | 36034 ft | 472 kts | 21° |
| 2026-02-19 10:53 | 55.28539 | -4.81455 | 36270 ft | 479 kts | 27° |
| 2026-02-19 10:53 | 55.30281 | -4.78835 | 36434 ft | 487 kts | 33° |
| 2026-02-19 10:54 | 55.32754 | -4.74111 | 36665 ft | 498 kts | 43° |
| 2026-02-19 10:54 | 55.36682 | -4.63690 | 36748 ft | 503 kts | 49° |
| 2026-02-19 10:55 | 55.40516 | -4.53139 | 36753 ft | 502 kts | 48° |
| 2026-02-19 10:55 | 55.44308 | -4.42705 | 36747 ft | 501 kts | 49° |
| 2026-02-19 10:56 | 55.48050 | -4.32360 | 36745 ft | 501 kts | 49° |
| 2026-02-19 10:56 | 55.53626 | -4.16826 | 36739 ft | 498 kts | 49° |
| 2026-02-19 10:57 | 55.57387 | -4.06285 | 36723 ft | 496 kts | 49° |
| 2026-02-19 10:57 | 55.61076 | -3.95900 | 36718 ft | 495 kts | 49° |
| 2026-02-19 10:58 | 55.64747 | -3.85528 | 36750 ft | 499 kts | 50° |
| 2026-02-19 10:58 | 55.67874 | -3.76649 | 36747 ft | 499 kts | 50° |
| 2026-02-19 10:59 | 55.71694 | -3.65758 | 36756 ft | 500 kts | 50° |
| 2026-02-19 10:59 | 55.75449 | -3.55006 | 36760 ft | 500 kts | 50° |
| 2026-02-19 11:00 | 55.80917 | -3.39261 | 36774 ft | 500 kts | 50° |
| 2026-02-19 11:01 | 55.84593 | -3.28620 | 36778 ft | 501 kts | 50° |
| 2026-02-19 11:01 | 55.88269 | -3.17930 | 36781 ft | 500 kts | 50° |
| 2026-02-19 11:02 | 55.91917 | -3.07275 | 36773 ft | 500 kts | 50° |
| 2026-02-19 11:02 | 55.95587 | -2.96509 | 36779 ft | 499 kts | 50° |
| 2026-02-19 11:03 | 55.99308 | -2.85549 | 36710 ft | 494 kts | 54° |
| 2026-02-19 11:03 | 56.01037 | -2.80482 | 36764 ft | 478 kts | 54° |
| 2026-02-19 11:03 | 56.02126 | -2.77259 | 36840 ft | 469 kts | 51° |
| 2026-02-19 11:04 | 56.06123 | -2.65327 | 36781 ft | 477 kts | 50° |
| 2026-02-19 11:04 | 56.10855 | -2.51211 | 36793 ft | 489 kts | 51° |
| 2026-02-19 11:05 | 56.14442 | -2.40434 | 36792 ft | 491 kts | 51° |
| 2026-02-19 11:05 | 56.17931 | -2.29897 | 36799 ft | 489 kts | 51° |
| 2026-02-19 11:06 | 56.21391 | -2.19413 | 36809 ft | 489 kts | 51° |
| 2026-02-19 11:06 | 56.24849 | -2.08896 | 36810 ft | 488 kts | 51° |
| 2026-02-19 11:07 | 56.28296 | -1.98363 | 36809 ft | 487 kts | 51° |
| 2026-02-19 11:07 | 56.31722 | -1.87851 | 36809 ft | 486 kts | 52° |
| 2026-02-19 11:08 | 56.36822 | -1.72116 | 36814 ft | 484 kts | 52° |
| 2026-02-19 11:09 | 56.40209 | -1.61610 | 36813 ft | 483 kts | 52° |
| 2026-02-19 11:09 | 56.43588 | -1.51080 | 36817 ft | 483 kts | 52° |
| 2026-02-19 11:10 | 56.46943 | -1.40579 | 36819 ft | 482 kts | 53° |
| 2026-02-19 11:10 | 56.50280 | -1.30088 | 36827 ft | 481 kts | 53° |
| 2026-02-19 11:11 | 56.53611 | -1.19572 | 36830 ft | 480 kts | 53° |
| 2026-02-19 11:11 | 56.56924 | -1.09061 | 36826 ft | 480 kts | 53° |
| 2026-02-19 11:12 | 56.60237 | -0.98507 | 36827 ft | 479 kts | 53° |
| 2026-02-19 11:12 | 56.65186 | -0.82647 | 36830 ft | 478 kts | 54° |
| 2026-02-19 11:13 | 56.68461 | -0.72099 | 36824 ft | 478 kts | 54° |
| 2026-02-19 11:13 | 56.71710 | -0.61587 | 36837 ft | 478 kts | 54° |
| 2026-02-19 11:14 | 56.74999 | -0.50895 | 36845 ft | 478 kts | 54° |
| 2026-02-19 11:14 | 56.78222 | -0.40369 | 36849 ft | 478 kts | 54° |
| 2026-02-19 11:15 | 56.81454 | -0.29767 | 36849 ft | 478 kts | 54° |
| 2026-02-19 11:15 | 56.84706 | -0.19052 | 36859 ft | 478 kts | 55° |
| 2026-02-19 11:16 | 56.89526 | -0.03075 | 36861 ft | 479 kts | 55° |
| 2026-02-19 11:17 | 56.92726 | 0.07591 | 36865 ft | 479 kts | 55° |
| 2026-02-19 11:17 | 56.95944 | 0.18368 | 36865 ft | 479 kts | 55° |
| 2026-02-19 11:18 | 56.99146 | 0.29143 | 36875 ft | 479 kts | 56° |
| 2026-02-19 11:18 | 57.01794 | 0.38088 | 36879 ft | 479 kts | 56° |
| 2026-02-19 11:19 | 57.04979 | 0.48893 | 36885 ft | 479 kts | 56° |
| 2026-02-19 11:19 | 57.08148 | 0.59698 | 36886 ft | 479 kts | 56° |
| 2026-02-19 11:20 | 57.11298 | 0.70483 | 36887 ft | 478 kts | 56° |
| 2026-02-19 11:20 | 57.15986 | 0.86631 | 36897 ft | 477 kts | 56° |
| 2026-02-19 11:21 | 57.19106 | 0.97439 | 36902 ft | 477 kts | 57° |
| 2026-02-19 11:21 | 57.22240 | 1.08345 | 36903 ft | 476 kts | 57° |
| 2026-02-19 11:22 | 57.25326 | 1.19135 | 36908 ft | 475 kts | 57° |
| 2026-02-19 11:22 | 57.28412 | 1.29980 | 36890 ft | 474 kts | 57° |
| 2026-02-19 11:23 | 57.31472 | 1.40780 | 36899 ft | 473 kts | 57° |
| 2026-02-19 11:23 | 57.34521 | 1.51591 | 36904 ft | 472 kts | 57° |
| 2026-02-19 11:24 | 57.39068 | 1.67811 | 36909 ft | 471 kts | 57° |
| 2026-02-19 11:25 | 57.42085 | 1.78636 | 36915 ft | 471 kts | 58° |
| 2026-02-19 11:25 | 57.45089 | 1.89468 | 36916 ft | 470 kts | 58° |
| 2026-02-19 11:26 | 57.48069 | 2.00261 | 36919 ft | 470 kts | 58° |
| 2026-02-19 11:26 | 57.51049 | 2.11108 | 36917 ft | 470 kts | 58° |
| 2026-02-19 11:27 | 57.54019 | 2.21969 | 36913 ft | 470 kts | 58° |
| 2026-02-19 11:27 | 57.56975 | 2.32829 | 36918 ft | 470 kts | 58° |
| 2026-02-19 11:28 | 57.59931 | 2.43742 | 36922 ft | 470 kts | 59° |
| 2026-02-19 11:28 | 57.64332 | 2.60092 | 36931 ft | 470 kts | 59° |
| 2026-02-19 11:29 | 57.67247 | 2.70983 | 36935 ft | 470 kts | 59° |
| 2026-02-19 11:29 | 57.70170 | 2.81957 | 36946 ft | 470 kts | 59° |
| 2026-02-19 11:30 | 57.73066 | 2.92886 | 36957 ft | 470 kts | 59° |
| 2026-02-19 11:30 | 57.75971 | 3.03899 | 36966 ft | 470 kts | 60° |
| 2026-02-19 11:31 | 57.78857 | 3.14897 | 36972 ft | 470 kts | 60° |
| 2026-02-19 11:31 | 57.81731 | 3.25894 | 36977 ft | 470 kts | 60° |
| 2026-02-19 11:32 | 57.86045 | 3.42459 | 36978 ft | 470 kts | 60° |
| 2026-02-19 11:33 | 57.88913 | 3.53531 | 36981 ft | 470 kts | 60° |
| 2026-02-19 11:33 | 57.91567 | 3.64788 | 36987 ft | 473 kts | 65° |
| 2026-02-19 11:34 | 57.93841 | 3.76432 | 36985 ft | 473 kts | 66° |
| 2026-02-19 11:34 | 57.96177 | 3.87954 | 36984 ft | 473 kts | 65° |
| 2026-02-19 11:35 | 57.98509 | 3.99540 | 36987 ft | 472 kts | 66° |
| 2026-02-19 11:35 | 58.00813 | 4.11119 | 36989 ft | 473 kts | 66° |
| 2026-02-19 11:36 | 58.03108 | 4.22772 | 36992 ft | 473 kts | 66° |
| 2026-02-19 11:36 | 58.06517 | 4.40218 | 36997 ft | 473 kts | 66° |
| 2026-02-19 11:37 | 58.08777 | 4.51876 | 36995 ft | 473 kts | 66° |
| 2026-02-19 11:37 | 58.11034 | 4.63583 | 37005 ft | 473 kts | 67° |
| 2026-02-19 11:38 | 58.13277 | 4.75289 | 37000 ft | 473 kts | 67° |
| 2026-02-19 11:38 | 58.15500 | 4.86956 | 37009 ft | 473 kts | 67° |
| 2026-02-19 11:39 | 58.17721 | 4.98686 | 37011 ft | 473 kts | 67° |
| 2026-02-19 11:39 | 58.19940 | 5.10484 | 37018 ft | 473 kts | 67° |
| 2026-02-19 11:40 | 58.23235 | 5.28129 | 37022 ft | 474 kts | 67° |
| 2026-02-19 11:41 | 58.25426 | 5.39951 | 37022 ft | 474 kts | 68° |
| 2026-02-19 11:41 | 58.27591 | 5.51713 | 37031 ft | 474 kts | 68° |
| 2026-02-19 11:42 | 58.29755 | 5.63539 | 37032 ft | 474 kts | 68° |
| 2026-02-19 11:42 | 58.31900 | 5.75334 | 37041 ft | 474 kts | 68° |
| 2026-02-19 11:43 | 58.34056 | 5.87261 | 37046 ft | 473 kts | 68° |
| 2026-02-19 11:43 | 58.35831 | 5.97145 | 37047 ft | 473 kts | 68° |
| 2026-02-19 11:44 | 58.38033 | 6.09473 | 37050 ft | 473 kts | 68° |
| 2026-02-19 11:44 | 58.41176 | 6.27225 | 37056 ft | 471 kts | 68° |
| 2026-02-19 11:45 | 58.43305 | 6.39351 | 37063 ft | 472 kts | 68° |
| 2026-02-19 11:45 | 58.45406 | 6.51384 | 37074 ft | 472 kts | 68° |
| 2026-02-19 11:46 | 58.47466 | 6.63259 | 37085 ft | 472 kts | 68° |
| 2026-02-19 11:46 | 58.49535 | 6.75271 | 37079 ft | 470 kts | 68° |
| 2026-02-19 11:47 | 58.51569 | 6.87154 | 37083 ft | 470 kts | 68° |
| 2026-02-19 11:47 | 58.53598 | 6.99087 | 37084 ft | 470 kts | 68° |
| 2026-02-19 11:48 | 58.56655 | 7.17215 | 37090 ft | 469 kts | 68° |
| 2026-02-19 11:49 | 58.58647 | 7.29127 | 37090 ft | 468 kts | 68° |
| 2026-02-19 11:49 | 58.60643 | 7.41142 | 37097 ft | 468 kts | 69° |
| 2026-02-19 11:50 | 58.62604 | 7.53030 | 37093 ft | 468 kts | 69° |
| 2026-02-19 11:50 | 58.64249 | 7.63059 | 37091 ft | 467 kts | 69° |
| 2026-02-19 11:51 | 58.66527 | 7.77046 | 37091 ft | 467 kts | 69° |
| 2026-02-19 11:51 | 58.68159 | 7.87139 | 37090 ft | 467 kts | 69° |
| 2026-02-19 11:52 | 58.70165 | 7.99620 | 37093 ft | 467 kts | 69° |
| 2026-02-19 11:52 | 58.73021 | 8.17547 | 37092 ft | 467 kts | 69° |
| 2026-02-19 11:53 | 58.74911 | 8.29517 | 37086 ft | 467 kts | 69° |
| 2026-02-19 11:53 | 58.76802 | 8.41575 | 37086 ft | 466 kts | 69° |
| 2026-02-19 11:54 | 58.78691 | 8.53704 | 37093 ft | 466 kts | 70° |
| 2026-02-19 11:55 | 58.81514 | 8.71988 | 37091 ft | 467 kts | 70° |
| 2026-02-19 11:55 | 58.83389 | 8.84251 | 37088 ft | 467 kts | 70° |
| 2026-02-19 11:56 | 58.85225 | 8.96338 | 37090 ft | 467 kts | 70° |
| 2026-02-19 11:56 | 58.87966 | 9.14561 | 37089 ft | 467 kts | 70° |
| 2026-02-19 11:57 | 58.89459 | 9.24566 | 37089 ft | 467 kts | 70° |
| 2026-02-19 11:57 | 58.91259 | 9.36713 | 37097 ft | 467 kts | 70° |
| 2026-02-19 11:58 | 58.93128 | 9.49419 | 37097 ft | 467 kts | 70° |
| 2026-02-19 11:58 | 58.94865 | 9.61321 | 37092 ft | 467 kts | 70° |
| 2026-02-19 11:59 | 58.96655 | 9.73674 | 37094 ft | 467 kts | 70° |
| 2026-02-19 11:59 | 58.98431 | 9.86024 | 37083 ft | 467 kts | 70° |
| 2026-02-19 12:00 | 59.01043 | 10.04361 | 37068 ft | 467 kts | 71° |
| 2026-02-19 12:01 | 59.02783 | 10.16696 | 37056 ft | 466 kts | 71° |
| 2026-02-19 12:01 | 59.04509 | 10.29026 | 37060 ft | 466 kts | 71° |
| 2026-02-19 12:02 | 59.06214 | 10.41307 | 37055 ft | 466 kts | 71° |
| 2026-02-19 12:02 | 59.07892 | 10.53483 | 37059 ft | 466 kts | 71° |
| 2026-02-19 12:03 | 59.09323 | 10.63941 | 36979 ft | 465 kts | 71° |
| 2026-02-19 12:03 | 59.11034 | 10.76537 | 36971 ft | 466 kts | 71° |
| 2026-02-19 12:04 | 59.12711 | 10.88984 | 36967 ft | 466 kts | 71° |
| 2026-02-19 12:04 | 59.15181 | 11.07470 | 36984 ft | 466 kts | 71° |
| 2026-02-19 12:05 | 59.16806 | 11.19702 | 37012 ft | 466 kts | 71° |
| 2026-02-19 12:05 | 59.18526 | 11.31875 | 37041 ft | 462 kts | 63° |
| 2026-02-19 12:06 | 59.21422 | 11.43216 | 37065 ft | 457 kts | 57° |
| 2026-02-19 12:06 | 59.24412 | 11.54272 | 37089 ft | 457 kts | 57° |
| 2026-02-19 12:07 | 59.27391 | 11.65449 | 37092 ft | 458 kts | 57° |
| 2026-02-19 12:07 | 59.30324 | 11.76639 | 37089 ft | 459 kts | 60° |
| 2026-02-19 12:08 | 59.33020 | 11.92972 | 37089 ft | 467 kts | 73° |
| 2026-02-19 12:09 | 59.34507 | 12.05925 | 37087 ft | 467 kts | 72° |
| 2026-02-19 12:09 | 59.35974 | 12.18571 | 37088 ft | 466 kts | 72° |
| 2026-02-19 12:10 | 59.37388 | 12.30922 | 37090 ft | 466 kts | 73° |
| 2026-02-19 12:10 | 59.38789 | 12.43346 | 37089 ft | 466 kts | 73° |
| 2026-02-19 12:11 | 59.40194 | 12.55943 | 37090 ft | 466 kts | 73° |
| 2026-02-19 12:11 | 59.41578 | 12.68487 | 37084 ft | 466 kts | 73° |
| 2026-02-19 12:12 | 59.42944 | 12.80978 | 37076 ft | 465 kts | 73° |
| 2026-02-19 12:12 | 59.44974 | 12.99769 | 37034 ft | 465 kts | 73° |
| 2026-02-19 12:13 | 59.46325 | 13.12427 | 37023 ft | 464 kts | 73° |
| 2026-02-19 12:13 | 59.47426 | 13.22834 | 37021 ft | 464 kts | 74° |
| 2026-02-19 12:14 | 59.48760 | 13.35561 | 37016 ft | 464 kts | 74° |
| 2026-02-19 12:14 | 59.50051 | 13.48006 | 37019 ft | 463 kts | 74° |
| 2026-02-19 12:15 | 59.51361 | 13.60750 | 37035 ft | 463 kts | 74° |
| 2026-02-19 12:15 | 59.52648 | 13.73408 | 37047 ft | 463 kts | 74° |
| 2026-02-19 12:16 | 59.54538 | 13.92239 | 37071 ft | 463 kts | 75° |
| 2026-02-19 12:17 | 59.55790 | 14.04874 | 37079 ft | 463 kts | 75° |
| 2026-02-19 12:17 | 59.57014 | 14.17354 | 37076 ft | 463 kts | 75° |
| 2026-02-19 12:18 | 59.58233 | 14.29919 | 37078 ft | 462 kts | 75° |
| 2026-02-19 12:18 | 59.59434 | 14.42425 | 37075 ft | 462 kts | 75° |
| 2026-02-19 12:19 | 59.60626 | 14.54975 | 37073 ft | 462 kts | 75° |
| 2026-02-19 12:19 | 59.61814 | 14.67617 | 37071 ft | 461 kts | 76° |
| 2026-02-19 12:20 | 59.62976 | 14.80111 | 37068 ft | 461 kts | 76° |
| 2026-02-19 12:20 | 59.64521 | 14.96953 | 37067 ft | 460 kts | 76° |
| 2026-02-19 12:21 | 59.65659 | 15.09513 | 37065 ft | 460 kts | 76° |
| 2026-02-19 12:21 | 59.66811 | 15.22374 | 37063 ft | 460 kts | 76° |
| 2026-02-19 12:22 | 59.68007 | 15.35889 | 37061 ft | 460 kts | 76° |
| 2026-02-19 12:22 | 59.69070 | 15.48049 | 37057 ft | 459 kts | 76° |
| 2026-02-19 12:23 | 59.70167 | 15.60744 | 37053 ft | 459 kts | 77° |
| 2026-02-19 12:23 | 59.71243 | 15.73334 | 37049 ft | 459 kts | 77° |
| 2026-02-19 12:24 | 59.72694 | 15.90563 | 37048 ft | 459 kts | 77° |
| 2026-02-19 12:25 | 59.73729 | 16.03024 | 37043 ft | 459 kts | 77° |
| 2026-02-19 12:25 | 59.74769 | 16.15710 | 37044 ft | 459 kts | 77° |
| 2026-02-19 12:26 | 59.75840 | 16.28928 | 37041 ft | 460 kts | 78° |
| 2026-02-19 12:26 | 59.76816 | 16.41134 | 37041 ft | 460 kts | 78° |
| 2026-02-19 12:27 | 59.77822 | 16.53871 | 37046 ft | 460 kts | 78° |
| 2026-02-19 12:27 | 59.78802 | 16.66438 | 37046 ft | 460 kts | 78° |
| 2026-02-19 12:28 | 59.79772 | 16.79036 | 37049 ft | 460 kts | 78° |
| 2026-02-19 12:28 | 59.81200 | 16.97899 | 37043 ft | 460 kts | 79° |
| 2026-02-19 12:29 | 59.82152 | 17.10674 | 37033 ft | 460 kts | 79° |
| 2026-02-19 12:29 | 59.83086 | 17.23395 | 37026 ft | 460 kts | 79° |
| 2026-02-19 12:30 | 59.83998 | 17.35977 | 37024 ft | 459 kts | 79° |
| 2026-02-19 12:30 | 59.84758 | 17.46598 | 37014 ft | 459 kts | 79° |
| 2026-02-19 12:31 | 59.85653 | 17.59275 | 37005 ft | 458 kts | 79° |
| 2026-02-19 12:31 | 59.86526 | 17.71821 | 37002 ft | 458 kts | 79° |
| 2026-02-19 12:32 | 59.87831 | 17.90902 | 36999 ft | 457 kts | 80° |
| 2026-02-19 12:33 | 59.88701 | 18.03860 | 37002 ft | 457 kts | 80° |
| 2026-02-19 12:33 | 59.89536 | 18.16481 | 36999 ft | 457 kts | 80° |
| 2026-02-19 12:34 | 59.90367 | 18.29245 | 37000 ft | 457 kts | 81° |
| 2026-02-19 12:34 | 59.91165 | 18.41693 | 37011 ft | 457 kts | 81° |
| 2026-02-19 12:35 | 59.91977 | 18.54537 | 37013 ft | 457 kts | 81° |
| 2026-02-19 12:35 | 59.92757 | 18.67093 | 37008 ft | 457 kts | 81° |
| 2026-02-19 12:36 | 59.93551 | 18.80069 | 37016 ft | 457 kts | 81° |
| 2026-02-19 12:36 | 59.94683 | 18.98947 | 37020 ft | 457 kts | 82° |
| 2026-02-19 12:37 | 59.95313 | 19.09671 | 37021 ft | 457 kts | 82° |
| 2026-02-19 12:37 | 59.96054 | 19.22350 | 37022 ft | 458 kts | 82° |
| 2026-02-19 12:38 | 59.96793 | 19.35133 | 37017 ft | 458 kts | 82° |
| 2026-02-19 12:38 | 59.97720 | 19.47976 | 37007 ft | 456 kts | 75° |
| 2026-02-19 12:39 | 59.99369 | 19.60396 | 37003 ft | 456 kts | 73° |
| 2026-02-19 12:39 | 60.01034 | 19.73309 | 36999 ft | 456 kts | 75° |
| 2026-02-19 12:40 | 60.03081 | 19.90301 | 36999 ft | 457 kts | 75° |
| 2026-02-19 12:41 | 60.04606 | 20.03214 | 37000 ft | 457 kts | 76° |
| 2026-02-19 12:41 | 60.06090 | 20.15888 | 37003 ft | 457 kts | 76° |
| 2026-02-19 12:42 | 60.07571 | 20.28644 | 37005 ft | 457 kts | 76° |
| 2026-02-19 12:42 | 60.09018 | 20.41224 | 37010 ft | 457 kts | 76° |
| 2026-02-19 12:43 | 60.10231 | 20.51856 | 37012 ft | 457 kts | 76° |
| 2026-02-19 12:43 | 60.11688 | 20.64732 | 37017 ft | 456 kts | 76° |
| 2026-02-19 12:44 | 60.13082 | 20.77172 | 37007 ft | 456 kts | 76° |
| 2026-02-19 12:44 | 60.15205 | 20.96348 | 37008 ft | 456 kts | 77° |
| 2026-02-19 12:45 | 60.16631 | 21.09379 | 37007 ft | 456 kts | 77° |
| 2026-02-19 12:45 | 60.17977 | 21.21798 | 37002 ft | 456 kts | 77° |
| 2026-02-19 12:46 | 60.19332 | 21.34423 | 36997 ft | 456 kts | 77° |
| 2026-02-19 12:46 | 60.20669 | 21.46974 | 36996 ft | 456 kts | 77° |
| 2026-02-19 12:47 | 60.21788 | 21.57586 | 36997 ft | 456 kts | 77° |
| 2026-02-19 12:47 | 60.23146 | 21.70565 | 36993 ft | 456 kts | 78° |
| 2026-02-19 12:48 | 60.25094 | 21.89409 | 36989 ft | 456 kts | 78° |
| 2026-02-19 12:49 | 60.26414 | 22.02340 | 36984 ft | 456 kts | 78° |
| 2026-02-19 12:49 | 60.27478 | 22.12861 | 36978 ft | 456 kts | 78° |
| 2026-02-19 12:50 | 60.27705 | 22.15116 | 36978 ft | 456 kts | 78° |